createdAt,value
2023-04-22T00:02:14.637Z,100924.66
2023-04-22T00:04:47.466Z,100922.91
2023-04-22T00:07:18.263Z,100919.44
2023-04-22T00:09:47.854Z,100908.31
2023-04-22T00:12:17.458Z,100912.84
2023-04-22T00:14:46.939Z,100920.38
2023-04-22T00:17:16.474Z,100914.28
2023-04-22T00:19:48.584Z,100904.00
2023-04-22T00:22:18.065Z,100904.81
2023-04-22T00:24:47.580Z,100910.84
2023-04-22T00:27:17.110Z,100905.94
2023-04-22T00:29:46.611Z,100905.84
2023-04-22T00:32:16.159Z,100910.19
2023-04-22T00:34:48.274Z,100910.03
2023-04-22T00:37:17.762Z,100910.59
2023-04-22T00:39:47.300Z,100915.09
2023-04-22T00:42:17.044Z,100909.38
2023-04-22T00:44:47.039Z,100912.09
2023-04-22T00:47:16.803Z,100919.59
2023-04-22T00:49:49.567Z,100911.16
2023-04-22T00:52:19.040Z,100911.16
2023-04-22T00:54:49.783Z,100915.41
2023-04-22T00:57:20.164Z,100909.53
2023-04-22T00:59:49.837Z,100912.19
2023-04-22T01:02:19.724Z,100903.44
2023-04-22T01:04:54.249Z,100901.00
2023-04-22T01:07:24.214Z,100904.38
2023-04-22T01:09:54.099Z,100895.84
2023-04-22T01:12:23.621Z,100889.09
2023-04-22T01:14:53.237Z,100889.97
2023-04-22T01:17:24.885Z,100890.88
2023-04-22T01:19:57.161Z,100883.78
2023-04-22T01:22:27.460Z,100882.16
2023-04-22T01:24:59.570Z,100882.09
2023-04-22T01:27:29.329Z,100875.25
2023-04-22T01:29:59.013Z,100879.47
2023-04-22T01:32:30.855Z,100877.53
2023-04-22T01:35:00.724Z,100861.94
2023-04-22T01:37:31.556Z,100870.63
2023-04-22T01:40:03.882Z,100855.19
2023-04-22T01:42:33.905Z,100864.44
2023-04-22T01:45:03.538Z,100859.13
2023-04-22T01:47:33.538Z,100860.66
2023-04-22T01:50:03.262Z,100852.13
2023-04-22T01:52:33.638Z,100846.84
2023-04-22T01:55:05.946Z,100847.75
2023-04-22T01:57:35.453Z,100844.34
2023-04-22T02:00:05.684Z,100826.56
2023-04-22T02:02:35.324Z,100836.69
2023-04-22T02:05:05.172Z,100827.22
2023-04-22T02:07:34.721Z,100824.63
2023-04-22T02:10:06.980Z,100823.81
2023-04-22T02:12:36.559Z,100817.72
2023-04-22T02:15:07.110Z,100812.59
2023-04-22T02:17:37.033Z,100801.47
2023-04-22T02:20:07.613Z,100799.88
2023-04-22T02:22:37.171Z,100805.75
2023-04-22T02:25:11.009Z,100802.16
2023-04-22T02:27:40.541Z,100792.81
2023-04-22T02:30:11.334Z,100803.91
2023-04-22T02:32:40.901Z,100794.56
2023-04-22T02:35:11.362Z,100779.31
2023-04-22T02:37:40.982Z,100767.22
2023-04-22T02:40:14.457Z,100781.88
2023-04-22T02:42:44.015Z,100766.25
2023-04-22T02:45:14.381Z,100761.75
2023-04-22T02:47:44.005Z,100763.47
2023-04-22T02:50:14.147Z,100765.25
2023-04-22T02:52:43.620Z,100757.69
2023-04-22T02:55:15.786Z,100750.81
2023-04-22T02:57:46.030Z,100738.84
2023-04-22T03:00:16.538Z,100731.88
2023-04-22T03:02:46.328Z,100731.66
2023-04-22T03:05:16.143Z,100731.56
2023-04-22T03:07:47.605Z,100719.66
2023-04-22T03:10:19.682Z,100722.00
2023-04-22T03:12:49.256Z,100712.59
2023-04-22T03:15:21.234Z,100726.13
2023-04-22T03:17:51.264Z,100709.00
2023-04-22T03:20:20.977Z,100710.69
2023-04-22T03:22:50.509Z,100711.81
2023-04-22T03:25:22.845Z,100703.06
2023-04-22T03:27:52.333Z,100693.34
2023-04-22T03:30:22.098Z,100690.03
2023-04-22T03:32:53.755Z,100689.81
2023-04-22T03:35:23.318Z,100684.69
2023-04-22T03:37:52.874Z,100680.38
2023-04-22T03:40:25.313Z,100677.78
2023-04-22T03:42:54.810Z,100661.44
2023-04-22T03:45:24.329Z,100657.19
2023-04-22T03:47:53.868Z,100656.16
2023-04-22T03:50:23.488Z,100668.78
2023-04-22T03:52:52.976Z,100668.06
2023-04-22T03:55:25.366Z,100654.38
2023-04-22T03:57:54.918Z,100658.50
2023-04-22T04:00:24.473Z,100654.69
2023-04-22T04:02:54.177Z,100653.75
2023-04-22T04:05:24.134Z,100649.53
2023-04-22T04:07:53.729Z,100626.56
2023-04-22T04:10:25.835Z,100633.84
2023-04-22T04:12:55.320Z,100620.09
2023-04-22T04:15:24.922Z,100614.97
2023-04-22T04:17:56.354Z,100618.34
2023-04-22T04:20:26.009Z,100618.34
2023-04-22T04:22:55.509Z,100611.44
2023-04-22T04:25:29.473Z,100606.88
2023-04-22T04:27:59.146Z,100601.72
2023-04-22T04:30:28.718Z,100589.69
2023-04-22T04:32:58.477Z,100587.19
2023-04-22T04:35:28.574Z,100596.84
2023-04-22T04:37:59.411Z,100587.38
2023-04-22T04:40:32.095Z,100599.25
2023-04-22T04:43:02.716Z,100595.84
2023-04-22T04:45:32.523Z,100591.63
2023-04-22T04:48:02.894Z,100591.81
2023-04-22T04:50:32.477Z,100596.16
2023-04-22T04:53:02.583Z,100578.56
2023-04-22T04:55:34.703Z,100581.22
2023-04-22T04:58:04.284Z,100591.56
2023-04-22T05:00:33.837Z,100601.25
2023-04-22T05:03:03.704Z,100596.31
2023-04-22T05:05:33.596Z,100577.75
2023-04-22T05:08:03.128Z,100533.66
2023-04-22T05:13:13.728Z,100557.81
2023-04-22T05:15:41.996Z,100554.84
2023-04-22T05:18:10.309Z,100594.31
2023-04-22T05:20:38.585Z,100602.41
2023-04-22T05:23:06.984Z,100609.84
2023-04-22T05:25:35.250Z,100584.16
2023-04-22T05:28:03.415Z,100619.78
2023-04-22T05:30:35.564Z,100627.13
2023-04-22T05:33:05.137Z,100636.34
2023-04-22T05:35:34.660Z,100657.50
2023-04-22T05:38:04.723Z,100644.81
2023-04-22T05:40:34.253Z,100635.44
2023-04-22T05:43:04.026Z,100618.44
2023-04-22T05:45:36.654Z,100610.22
2023-04-22T05:48:06.704Z,100601.06
2023-04-22T05:50:36.556Z,100586.69
2023-04-22T05:53:06.038Z,100594.69
2023-04-22T05:55:35.575Z,100618.81
2023-04-22T05:58:05.042Z,100625.16
2023-04-22T06:00:37.167Z,100620.94
2023-04-22T06:03:07.098Z,100618.00
2023-04-22T06:05:36.714Z,100614.03
2023-04-22T06:08:06.536Z,100614.34
2023-04-22T06:10:36.101Z,100623.03
2023-04-22T06:13:05.653Z,100630.09
2023-04-22T06:15:37.957Z,100627.09
2023-04-22T06:18:08.022Z,100632.38
2023-04-22T06:20:37.636Z,100632.63
2023-04-22T06:23:07.687Z,100634.00
2023-04-22T06:25:37.273Z,100639.50
2023-04-22T06:28:06.764Z,100652.56
2023-04-22T06:30:38.881Z,100652.94
2023-04-22T06:33:08.386Z,100646.38
2023-04-22T06:35:37.979Z,100644.94
2023-04-22T06:38:07.588Z,100656.56
2023-04-22T06:40:37.128Z,100630.38
2023-04-22T06:43:06.721Z,100662.44
2023-04-22T06:45:39.218Z,100661.00
2023-04-22T06:48:08.720Z,100665.03
2023-04-22T06:50:38.821Z,100666.34
2023-04-22T06:53:09.963Z,100657.16
2023-04-22T06:55:39.632Z,100662.66
2023-04-22T06:58:09.166Z,100674.28
2023-04-22T07:00:41.290Z,100678.78
2023-04-22T07:03:10.810Z,100674.72
2023-04-22T07:05:40.582Z,100679.19
2023-04-22T07:08:10.066Z,100679.41
2023-04-22T07:10:39.609Z,100680.63
2023-04-22T07:13:09.108Z,100686.06
2023-04-22T07:15:41.279Z,100680.28
2023-04-22T07:18:11.134Z,100682.22
2023-04-22T07:20:40.688Z,100685.84
2023-04-22T07:23:11.358Z,100684.25
2023-04-22T07:25:40.868Z,100681.06
2023-04-22T07:28:10.403Z,100687.47
2023-04-22T07:30:42.485Z,100675.81
2023-04-22T07:33:11.999Z,100685.75
2023-04-22T07:35:41.480Z,100682.44
2023-04-22T07:38:12.753Z,100681.72
2023-04-22T07:40:44.028Z,100677.69
2023-04-22T07:43:13.564Z,100684.03
2023-04-22T07:45:45.885Z,100685.78
2023-04-22T07:48:15.411Z,100679.88
2023-04-22T07:50:44.886Z,100682.78
2023-04-22T07:53:16.005Z,100679.59
2023-04-22T07:55:45.526Z,100677.34
2023-04-22T07:58:15.049Z,100669.81
2023-04-22T08:00:47.161Z,100670.88
2023-04-22T08:03:17.003Z,100666.75
2023-04-22T08:05:46.816Z,100661.81
2023-04-22T08:08:16.289Z,100665.72
2023-04-22T08:10:45.897Z,100664.22
2023-04-22T08:13:17.798Z,100655.00
2023-04-22T08:15:50.738Z,100649.03
2023-04-22T08:18:20.919Z,100650.16
2023-04-22T08:20:50.822Z,100644.16
2023-04-22T08:23:20.379Z,100650.19
2023-04-22T08:25:50.404Z,100641.75
2023-04-22T08:28:19.932Z,100643.91
2023-04-22T08:30:52.130Z,100644.97
2023-04-22T08:33:21.633Z,100638.19
2023-04-22T08:35:51.395Z,100642.03
2023-04-22T08:38:20.919Z,100639.69
2023-04-22T08:40:50.886Z,100628.41
2023-04-22T08:43:21.057Z,100638.91
2023-04-22T08:45:53.608Z,100629.53
2023-04-22T08:48:23.173Z,100620.25
2023-04-22T08:50:53.080Z,100624.75
2023-04-22T08:53:24.902Z,100614.44
2023-04-22T08:55:54.747Z,100615.28
2023-04-22T08:58:24.632Z,100621.59
2023-04-22T09:00:58.038Z,100628.25
2023-04-22T09:03:27.591Z,100625.41
2023-04-22T09:05:58.161Z,100621.94
2023-04-22T09:08:28.169Z,100613.31
2023-04-22T09:10:58.004Z,100621.53
2023-04-22T09:13:29.217Z,100617.66
2023-04-22T09:16:04.450Z,100612.63
2023-04-22T09:18:33.967Z,100617.16
2023-04-22T09:21:03.569Z,100616.34
2023-04-22T09:23:33.190Z,100620.84
2023-04-22T09:26:02.732Z,100614.88
2023-04-22T09:28:32.223Z,100612.50
2023-04-22T09:31:06.149Z,100603.81
2023-04-22T09:33:35.652Z,100606.25
2023-04-22T09:36:11.906Z,100613.41
2023-04-22T09:38:43.838Z,100608.47
2023-04-22T09:41:13.575Z,100601.66
2023-04-22T09:43:43.106Z,100601.75
2023-04-22T09:46:15.509Z,100594.59
2023-04-22T09:48:47.452Z,100604.50
2023-04-22T09:51:18.912Z,100593.22
2023-04-22T09:53:48.923Z,100580.25
2023-04-22T09:56:18.381Z,100581.22
2023-04-22T09:58:47.950Z,100578.69
2023-04-22T10:01:20.112Z,100581.44
2023-04-22T10:03:49.639Z,100572.84
2023-04-22T10:06:19.463Z,100572.91
2023-04-22T10:08:49.174Z,100572.06
2023-04-22T10:11:18.723Z,100565.19
2023-04-22T10:13:48.234Z,100570.38
2023-04-22T10:16:21.982Z,100567.63
2023-04-22T10:18:52.212Z,100559.03
2023-04-22T10:21:22.901Z,100564.25
2023-04-22T10:23:53.415Z,100552.91
2023-04-22T10:26:50.672Z,100553.03
2023-04-22T10:29:22.209Z,100536.50
2023-04-22T10:31:58.624Z,100538.28
2023-04-22T10:34:28.340Z,100538.31
2023-04-22T10:36:59.872Z,100528.84
2023-04-22T10:39:30.263Z,100528.00
2023-04-22T10:42:10.268Z,100524.50
2023-04-22T10:44:50.757Z,100521.00
2023-04-22T10:47:33.495Z,100525.41
2023-04-22T10:50:19.750Z,100516.72
2023-04-22T10:52:52.026Z,100512.38
2023-04-22T10:55:22.110Z,100516.75
2023-04-22T10:57:53.424Z,100508.91
2023-04-22T11:03:21.024Z,100503.66
2023-04-22T11:05:50.802Z,100496.66
2023-04-22T11:08:31.236Z,100498.41
2023-04-22T11:11:13.776Z,100486.19
2023-04-22T11:13:45.702Z,100495.78
2023-04-22T11:16:16.497Z,100489.72
2023-04-22T11:18:49.623Z,100487.03
2023-04-22T11:21:19.904Z,100487.91
2023-04-22T11:23:53.487Z,100482.72
2023-04-22T11:26:37.799Z,100473.09
2023-04-22T11:29:07.464Z,100481.78
2023-04-22T11:31:38.311Z,100475.63
2023-04-22T11:34:12.148Z,100464.22
2023-04-22T11:36:41.687Z,100470.34
2023-04-22T11:39:16.884Z,100465.97
2023-04-22T11:41:46.532Z,100459.00
2023-04-22T11:44:17.458Z,100451.97
2023-04-22T11:46:47.905Z,100450.19
2023-04-22T11:49:20.448Z,100444.97
2023-04-22T11:51:57.746Z,100448.50
2023-04-22T11:54:35.018Z,100451.91
2023-04-22T11:57:06.250Z,100445.75
2023-04-22T11:59:36.076Z,100446.50
2023-04-22T12:02:08.355Z,100434.25
2023-04-22T12:04:44.652Z,100431.63
2023-04-22T12:07:14.212Z,100427.34
2023-04-22T12:09:43.770Z,100415.09
2023-04-22T12:12:13.409Z,100422.06
2023-04-22T12:14:43.654Z,100427.03
2023-04-22T12:17:13.729Z,100422.44
2023-04-22T12:19:49.831Z,100418.91
2023-04-22T12:22:27.163Z,100417.97
2023-04-22T12:24:56.963Z,100414.13
2023-04-22T12:27:26.514Z,100416.19
2023-04-22T12:29:57.389Z,100423.81
2023-04-22T12:32:30.962Z,100413.59
2023-04-22T12:35:03.187Z,100400.59
2023-04-22T12:37:32.972Z,100400.31
2023-04-22T12:40:02.527Z,100392.31
2023-04-22T12:42:32.110Z,100398.56
2023-04-22T12:45:01.841Z,100384.25
2023-04-22T12:47:31.616Z,100388.53
2023-04-22T12:50:06.941Z,100391.34
2023-04-22T12:52:37.687Z,100387.50
2023-04-22T12:55:07.985Z,100370.25
2023-04-22T12:57:38.173Z,100364.19
2023-04-22T13:00:14.525Z,100369.91
2023-04-22T13:02:45.222Z,100369.91
2023-04-22T13:05:17.572Z,100351.56
2023-04-22T13:07:59.669Z,100353.91
2023-04-22T13:10:36.253Z,100351.72
2023-04-22T13:15:41.232Z,100357.44
2023-04-22T13:18:10.965Z,100358.66
2023-04-22T13:20:43.879Z,100348.34
2023-04-22T13:23:14.510Z,100342.44
2023-04-22T13:25:44.222Z,100332.91
2023-04-22T13:28:14.174Z,100337.38
2023-04-22T13:30:43.867Z,100336.94
2023-04-22T13:33:13.525Z,100346.31
2023-04-22T13:35:46.307Z,100333.44
2023-04-22T13:38:16.092Z,100335.16
2023-04-22T13:40:45.730Z,100319.31
2023-04-22T13:43:15.454Z,100324.63
2023-04-22T13:45:45.128Z,100307.56
2023-04-22T13:48:14.716Z,100304.81
2023-04-22T13:50:46.881Z,100305.41
2023-04-22T13:53:16.684Z,100292.88
2023-04-22T13:55:46.482Z,100295.91
2023-04-22T13:58:16.014Z,100295.16
2023-04-22T14:00:45.800Z,100305.84
2023-04-22T14:03:15.569Z,100308.19
2023-04-22T14:05:47.851Z,100302.03
2023-04-22T14:08:17.418Z,100297.13
2023-04-22T14:10:47.124Z,100282.34
2023-04-22T14:13:16.666Z,100279.66
2023-04-22T14:15:46.418Z,100292.88
2023-04-22T14:18:15.966Z,100284.34
2023-04-22T14:20:48.341Z,100286.31
2023-04-22T14:23:17.897Z,100274.00
2023-04-22T14:25:48.527Z,100273.19
2023-04-22T14:28:19.489Z,100277.75
2023-04-22T14:30:49.113Z,100276.38
2023-04-22T14:33:18.727Z,100272.84
2023-04-22T14:35:50.930Z,100271.22
2023-04-22T14:38:20.937Z,100268.59
2023-04-22T14:40:50.901Z,100258.72
2023-04-22T14:43:21.608Z,100255.78
2023-04-22T14:45:51.262Z,100250.22
2023-04-22T14:48:20.845Z,100247.94
2023-04-22T14:50:53.194Z,100229.50
2023-04-22T14:53:23.184Z,100233.91
2023-04-22T14:55:52.798Z,100231.34
2023-04-22T14:58:23.220Z,100221.81
2023-04-22T15:00:53.173Z,100224.84
2023-04-22T15:03:23.186Z,100223.66
2023-04-22T15:05:55.477Z,100226.28
2023-04-22T15:08:25.613Z,100227.34
2023-04-22T15:10:55.807Z,100230.69
2023-04-22T15:13:25.420Z,100217.56
2023-04-22T15:15:55.070Z,100211.50
2023-04-22T15:18:25.162Z,100207.41
2023-04-22T15:20:57.325Z,100202.81
2023-04-22T15:23:26.913Z,100194.03
2023-04-22T15:25:57.122Z,100197.53
2023-04-22T15:28:26.996Z,100197.72
2023-04-22T15:30:56.637Z,100187.94
2023-04-22T15:33:26.196Z,100188.72
2023-04-22T15:35:58.452Z,100181.69
2023-04-22T15:38:27.991Z,100177.84
2023-04-22T15:40:57.775Z,100191.00
2023-04-22T15:43:27.298Z,100176.53
2023-04-22T15:45:56.882Z,100176.44
2023-04-22T15:48:26.463Z,100185.34
2023-04-22T15:50:58.612Z,100173.28
2023-04-22T15:53:28.199Z,100168.22
2023-04-22T15:55:58.285Z,100173.50
2023-04-22T15:58:30.519Z,100170.09
2023-04-22T16:01:17.385Z,100167.56
2023-04-22T16:03:48.531Z,100170.19
2023-04-22T16:06:21.378Z,100170.44
2023-04-22T16:08:51.140Z,100163.56
2023-04-22T16:11:20.745Z,100155.81
2023-04-22T16:13:50.583Z,100157.56
2023-04-22T16:16:20.393Z,100151.41
2023-04-22T16:18:51.210Z,100151.41
2023-04-22T16:21:23.305Z,100153.19
2023-04-22T16:23:52.817Z,100152.28
2023-04-22T16:26:22.426Z,100153.28
2023-04-22T16:28:52.026Z,100149.00
2023-04-22T16:31:23.140Z,100143.84
2023-04-22T16:33:52.886Z,100143.84
2023-04-22T16:36:25.030Z,100137.75
2023-04-22T16:38:54.580Z,100137.84
2023-04-22T16:41:24.123Z,100137.84
2023-04-22T16:43:53.672Z,100135.28
2023-04-22T16:46:23.308Z,100132.66
2023-04-22T16:48:52.871Z,100127.56
2023-04-22T16:51:25.031Z,100128.41
2023-04-22T16:53:54.546Z,100130.19
2023-04-22T16:56:24.393Z,100125.84
2023-04-22T16:58:54.464Z,100117.09
2023-04-22T17:01:24.256Z,100118.94
2023-04-22T17:03:54.381Z,100111.97
2023-04-22T17:06:27.582Z,100115.53
2023-04-22T17:08:57.282Z,100118.22
2023-04-22T17:11:26.923Z,100108.63
2023-04-22T17:13:56.549Z,100113.88
2023-04-22T17:16:26.467Z,100113.03
2023-04-22T17:18:56.398Z,100114.81
2023-04-22T17:21:28.929Z,100118.41
2023-04-22T17:23:58.825Z,100115.88
2023-04-22T17:26:28.466Z,100118.50
2023-04-22T17:28:58.065Z,100107.28
2023-04-22T17:31:27.737Z,100103.00
2023-04-22T17:33:57.429Z,100105.63
2023-04-22T17:36:29.926Z,100104.81
2023-04-22T17:38:59.443Z,100098.78
2023-04-22T17:41:29.211Z,100105.81
2023-04-22T17:43:59.314Z,100108.47
2023-04-22T17:46:29.038Z,100099.75
2023-04-22T17:48:58.939Z,100101.56
2023-04-22T17:51:31.620Z,100105.94
2023-04-22T17:54:01.769Z,100094.63
2023-04-22T17:56:31.279Z,100099.84
2023-04-22T17:59:01.192Z,100105.13
2023-04-22T18:01:31.940Z,100099.91
2023-04-22T18:04:02.518Z,100097.31
2023-04-22T18:06:34.811Z,100100.00
2023-04-22T18:09:04.348Z,100106.13
2023-04-22T18:11:34.054Z,100096.56
2023-04-22T18:14:03.676Z,100102.72
2023-04-22T18:16:33.307Z,100110.53
2023-04-22T18:19:04.282Z,100109.72
2023-04-22T18:21:39.658Z,100102.75
2023-04-22T18:24:11.240Z,100110.56
2023-04-22T18:26:40.837Z,100107.97
2023-04-22T18:29:10.539Z,100114.97
2023-04-22T18:31:40.195Z,100118.44
2023-04-22T18:34:12.885Z,100120.22
2023-04-22T18:36:45.354Z,100118.47
2023-04-22T18:39:15.676Z,100127.19
2023-04-22T18:41:45.432Z,100123.69
2023-04-22T18:44:15.108Z,100126.34
2023-04-22T18:46:44.974Z,100128.09
2023-04-22T18:49:14.543Z,100127.25
2023-04-22T18:51:48.882Z,100126.34
2023-04-22T18:54:18.533Z,100135.94
2023-04-22T18:56:48.073Z,100134.19
2023-04-22T18:59:17.586Z,100138.56
2023-04-22T19:01:47.360Z,100132.44
2023-04-22T19:04:17.118Z,100132.44
2023-04-22T19:06:49.276Z,100134.22
2023-04-22T19:09:19.560Z,100127.22
2023-04-22T19:11:49.114Z,100132.47
2023-04-22T19:14:18.725Z,100131.59
2023-04-22T19:16:48.417Z,100131.59
2023-04-22T19:19:18.006Z,100142.91
2023-04-22T19:21:50.316Z,100149.00
2023-04-22T19:24:22.920Z,100155.09
2023-04-22T19:26:54.620Z,100156.81
2023-04-22T19:29:24.175Z,100158.56
2023-04-22T19:31:54.230Z,100144.66
2023-04-22T19:34:23.756Z,100149.84
2023-04-22T19:36:56.002Z,100153.34
2023-04-22T19:39:25.658Z,100150.72
2023-04-22T19:41:55.247Z,100145.50
2023-04-22T19:44:25.154Z,100149.00
2023-04-22T19:46:55.197Z,100143.72
2023-04-22T19:49:25.806Z,100144.59
2023-04-22T19:51:59.565Z,100145.44
2023-04-22T19:54:30.728Z,100141.09
2023-04-22T19:57:02.306Z,100135.88
2023-04-22T19:59:32.708Z,100135.88
2023-04-22T20:02:02.620Z,100132.41
2023-04-22T20:04:32.960Z,100142.84
2023-04-22T20:07:05.724Z,100206.25
2023-04-22T20:09:36.533Z,100229.66
2023-04-22T20:12:06.681Z,100195.72
2023-04-22T20:14:36.373Z,100149.56
2023-04-22T20:17:06.520Z,100118.25
2023-04-22T20:19:36.517Z,100055.59
2023-04-22T20:22:09.800Z,100034.72
2023-04-22T20:24:40.951Z,99993.00
2023-04-22T20:27:10.724Z,99977.34
2023-04-22T20:29:40.969Z,99972.09
2023-04-22T20:32:11.628Z,99953.84
2023-04-22T20:34:42.085Z,99959.88
2023-04-22T20:37:15.460Z,99955.53
2023-04-22T20:39:45.651Z,99944.25
2023-04-22T20:42:15.446Z,99945.97
2023-04-22T20:44:45.118Z,99947.72
2023-04-22T20:47:14.976Z,99940.75
2023-04-22T20:49:44.849Z,99942.47
2023-04-22T20:52:17.064Z,99938.09
2023-04-22T20:54:51.223Z,99938.09
2023-04-22T20:57:20.774Z,99928.50
2023-04-22T20:59:50.362Z,99924.13
2023-04-22T21:02:20.467Z,99911.97
2023-04-22T21:04:50.542Z,99919.72
2023-04-22T21:07:24.642Z,99928.25
2023-04-22T21:09:54.562Z,99934.31
2023-04-22T21:12:24.909Z,99931.63
2023-04-22T21:14:55.221Z,99943.75
2023-04-22T21:17:28.164Z,99943.75
2023-04-22T21:19:59.761Z,99948.06
2023-04-22T21:22:36.298Z,99954.97
2023-04-22T21:25:06.148Z,99950.59
2023-04-22T21:27:36.489Z,99966.97
2023-04-22T21:30:07.068Z,99977.22
2023-04-22T21:32:40.620Z,99987.69
2023-04-22T21:35:11.112Z,99993.75
2023-04-22T21:37:43.237Z,99993.59
2023-04-22T21:40:15.006Z,100004.00
2023-04-22T21:42:49.313Z,99999.63
2023-04-22T21:45:19.203Z,100010.75
2023-04-22T21:47:48.882Z,100013.28
2023-04-22T21:50:20.712Z,100029.63
2023-04-22T21:52:53.145Z,100019.31
2023-04-22T21:55:23.006Z,100032.25
2023-04-22T21:57:52.600Z,100037.38
2023-04-22T22:00:25.002Z,100044.25
2023-04-22T22:02:54.798Z,100035.50
2023-04-22T22:05:24.788Z,100049.41
2023-04-22T22:07:59.388Z,100050.28
2023-04-22T22:10:28.956Z,100064.03
2023-04-22T22:12:58.492Z,100075.22
2023-04-22T22:15:28.091Z,100081.22
2023-04-22T22:17:57.701Z,100082.06
2023-04-22T22:20:27.414Z,100106.25
2023-04-22T22:22:59.552Z,100101.03
2023-04-22T22:25:29.347Z,100110.59
2023-04-22T22:27:59.000Z,100137.28
2023-04-22T22:30:28.867Z,100145.03
2023-04-22T22:32:58.677Z,100146.84
2023-04-22T22:35:28.284Z,100159.78
2023-04-22T22:38:00.988Z,100187.22
2023-04-22T22:40:30.677Z,100213.13
2023-04-22T22:43:00.440Z,100226.13
2023-04-22T22:45:30.023Z,100241.72
2023-04-22T22:47:59.616Z,100247.75
2023-04-22T22:50:29.414Z,100242.66
2023-04-22T22:53:01.623Z,100258.09
2023-04-22T22:55:31.189Z,100280.44
2023-04-22T22:58:00.789Z,100289.03
2023-04-22T23:00:30.467Z,100294.09
2023-04-22T23:03:00.126Z,100312.19
2023-04-22T23:05:30.596Z,100329.50
2023-04-22T23:08:02.728Z,100343.97
2023-04-22T23:10:32.491Z,100354.50
2023-04-22T23:13:02.229Z,100379.38
2023-04-22T23:15:31.823Z,100382.75
2023-04-22T23:18:01.421Z,100398.25
2023-04-22T23:20:31.153Z,100401.75
2023-04-22T23:23:03.470Z,100420.59
2023-04-22T23:25:33.552Z,100439.53
2023-04-22T23:28:04.929Z,100432.72
2023-04-22T23:30:37.529Z,100434.41
2023-04-22T23:33:07.989Z,100439.47
2023-04-22T23:35:38.762Z,100444.59
2023-04-22T23:38:12.694Z,100467.09
2023-04-22T23:40:42.272Z,100485.22
2023-04-22T23:43:11.962Z,100489.56
2023-04-22T23:45:41.565Z,100499.06
2023-04-22T23:48:11.495Z,100511.00
2023-04-22T23:50:41.607Z,100523.81
2023-04-22T23:53:13.752Z,100540.97
2023-04-22T23:55:43.958Z,100548.63
2023-04-22T23:58:14.181Z,100563.22
